EDC309R / G-PERG 7700 Squawk Report (13th of December, 2018)

Time Lat Lon Altitude Heading Speed Vertical Rate
2018-12-13 18:30:27 GMT 55.520851 13.379374 -50 355 110 -768
2018-12-13 18:30:22 GMT 55.518665 13.379803 25 354 111 -704
2018-12-13 18:30:14 GMT 55.515198 13.380515 100 354 111 -640
2018-12-13 18:30:11 GMT 55.512753 13.381090 150 352 109 -704
2018-12-13 18:30:00 GMT 55.507816 13.382292 250 354 109 -768
2018-12-13 18:29:53 GMT 55.504745 13.382978 325 355 108 -640
2018-12-13 18:29:48 GMT 55.502289 13.383345 375 356 103 -448
2018-12-13 18:29:44 GMT 55.499672 13.383751 425 355 100 -512
2018-12-13 18:29:37 GMT 55.496971 13.384266 450 354 95 -448
2018-12-13 18:29:33 GMT 55.495155 13.384695 500 354 94 -512
2018-12-13 18:29:28 GMT 55.492905 13.385093 525 354 95 -448
2018-12-13 18:29:18 GMT 55.488125 13.386068 625 354 100 -576
2018-12-13 18:29:11 GMT 55.485519 13.386583 675 354 102 -576
2018-12-13 18:29:07 GMT 55.483284 13.387012 725 354 104 -704
2018-12-13 18:29:02 GMT 55.480820 13.387507 775 354 117 -768
2018-12-13 18:28:56 GMT 55.477280 13.388214 850 354 113 -704
2018-12-13 18:28:52 GMT 55.475510 13.388557 900 354 120 -832
2018-12-13 18:28:43 GMT 55.471180 13.389416 1,000 354 130 -832
2018-12-13 18:28:38 GMT 55.467728 13.390087 1,050 354 130 -832
2018-12-13 18:28:34 GMT 55.465439 13.390586 1,250 353 137 -832
2018-12-13 18:28:30 GMT 55.462830 13.391086 1,200 354 135 -832
2018-12-13 18:28:23 GMT 55.458427 13.392076 1,275 353 138 -896
2018-12-13 18:28:18 GMT 55.455505 13.392750 1,350 353 138 -896
2018-12-13 18:28:13 GMT 55.452141 13.393621 1,475 352 140 -896
2018-12-13 18:28:07 GMT 55.448509 13.394566 1,525 352 141 -832
2018-12-13 18:28:02 GMT 55.445297 13.395413 1,625 351 145 -448
2018-12-13 18:27:59 GMT 55.442970 13.396079 1,625 351 145 -320
2018-12-13 18:27:52 GMT 55.438293 13.397342 1,625 356 144 64
2018-12-13 18:27:48 GMT 55.435776 13.397666 1,625 5 140 0
2018-12-13 18:27:41 GMT 55.431377 13.397161 1,625 13 138 0
2018-12-13 18:27:38 GMT 55.429276 13.396050 1,625 20 135 64
2018-12-13 18:27:31 GMT 55.425282 13.393250 1,625 21 135 64
2018-12-13 18:27:28 GMT 55.423462 13.392011 1,625 21 135 0
2018-12-13 18:27:21 GMT 55.418839 13.388860 1,625 21 136 0
2018-12-13 18:27:17 GMT 55.416946 13.387507 1,625 21 138 0
2018-12-13 18:27:10 GMT 55.412613 13.384498 1,625 21 141 -64
2018-12-13 18:27:06 GMT 55.410599 13.383125 1,625 21 142 -64
2018-12-13 18:27:00 GMT 55.406147 13.380099 1,625 21 146 -64
2018-12-13 18:26:56 GMT 55.403915 13.378520 1,625 21 149 0
2018-12-13 18:26:49 GMT 55.399303 13.375105 1,625 26 151 64
2018-12-13 18:26:46 GMT 55.397552 13.373512 1,625 32 151 64
2018-12-13 18:26:39 GMT 55.392601 13.363953 1,625 71 150 -64
2018-12-13 18:26:28 GMT 55.391693 13.355094 1,625 90 152 0
2018-12-13 18:26:25 GMT 55.391670 13.351385 1,625 90 151 0
2018-12-13 18:26:17 GMT 55.391716 13.341897 1,625 90 151 0
2018-12-13 18:26:14 GMT 55.391693 13.338695 1,625 90 151 0
2018-12-13 18:26:07 GMT 55.391716 13.329163 1,625 90 150 0
2018-12-13 18:26:03 GMT 55.391716 13.325251 1,625 90 150 64
2018-12-13 18:25:56 GMT 55.391716 13.314930 1,625 90 150 0
2018-12-13 18:25:52 GMT 55.391739 13.311875 1,625 90 150 0
2018-12-13 18:25:43 GMT 55.391808 13.300864 1,625 96 151 0
2018-12-13 18:25:33 GMT 55.393066 13.288047 1,625 101 151 0
2018-12-13 18:25:23 GMT 55.395264 13.268253 1,625 101 149 64
2018-12-13 18:25:13 GMT 55.395905 13.262518 1,625 100 148 64
2018-12-13 18:25:02 GMT 55.397232 13.250804 1,625 101 148 -64
2018-12-13 18:24:51 GMT 55.398605 13.238442 1,625 101 150 0
2018-12-13 18:24:41 GMT 55.400047 13.225458 1,625 100 150 64
2018-12-13 18:24:30 GMT 55.401443 13.211948 1,625 100 156 64
2018-12-13 18:24:21 GMT 55.403137 13.199508 1,600 114 168 0
2018-12-13 18:24:09 GMT 55.409134 13.187067 1,600 147 191 -64
2018-12-13 18:23:59 GMT 55.417877 13.182595 1,625 176 215 -192
2018-12-13 18:23:48 GMT 55.429092 13.181413 1,700 176 223 -640
2018-12-13 18:23:38 GMT 55.439667 13.180201 1,775 176 231 -640
2018-12-13 18:23:27 GMT 55.451302 13.178787 1,925 176 245 -640
2018-12-13 18:23:19 GMT 55.461033 13.177671 2,025 176 257 -640
2018-12-13 18:23:16 GMT 55.465733 13.177071 2,050 176 258 -640
2018-12-13 18:23:09 GMT 55.475693 13.175853 2,125 176 260 -128
2018-12-13 18:22:58 GMT 55.488918 13.174410 2,125 176 260 64
2018-12-13 18:22:48 GMT 55.498413 13.173380 2,125 176 261 0
2018-12-13 18:22:45 GMT 55.502014 13.172940 2,125 176 261 0
2018-12-13 18:22:36 GMT 55.513031 13.171749 2,125 176 262 0
2018-12-13 18:22:24 GMT 55.526367 13.170194 2,125 176 261 0
2018-12-13 18:22:20 GMT 55.531448 13.169611 2,125 176 261 0
2018-12-13 18:22:14 GMT 55.539047 13.168779 2,125 176 260 0
2018-12-13 18:22:10 GMT 55.543396 13.168279 2,125 176 260 0
2018-12-13 18:22:04 GMT 55.552040 13.167286 2,125 176 259 0
2018-12-13 18:22:00 GMT 55.556259 13.166781 2,125 176 259 -64
2018-12-13 18:21:55 GMT 55.561630 13.166170 2,125 176 258 0
2018-12-13 18:21:52 GMT 55.564865 13.165783 2,125 176 257 0
2018-12-13 18:21:49 GMT 55.568661 13.165398 2,125 176 257 0
2018-12-13 18:21:43 GMT 55.576481 13.164454 2,125 176 256 0
2018-12-13 18:21:40 GMT 55.580997 13.163939 2,125 176 255 0
2018-12-13 18:21:32 GMT 55.588760 13.163119 2,125 176 254 64
2018-12-13 18:21:29 GMT 55.592869 13.162651 2,125 176 254 0
2018-12-13 18:21:22 GMT 55.601620 13.161707 2,125 176 254 0
2018-12-13 18:21:18 GMT 55.605240 13.161288 2,125 176 255 0
2018-12-13 18:21:12 GMT 55.613022 13.160456 2,125 176 255 0
2018-12-13 18:21:08 GMT 55.617050 13.160040 2,125 176 255 0
2018-12-13 18:21:03 GMT 55.623405 13.159304 2,125 176 255 0
2018-12-13 18:20:59 GMT 55.628998 13.158708 2,125 176 256 64
2018-12-13 18:20:51 GMT 55.637836 13.157759 2,125 176 256 0
2018-12-13 18:20:48 GMT 55.641518 13.157330 2,125 176 256 0
2018-12-13 18:20:40 GMT 55.650925 13.156294 2,125 176 258 0
2018-12-13 18:20:37 GMT 55.653618 13.155956 2,125 176 258 0
2018-12-13 18:20:32 GMT 55.660492 13.155212 2,125 176 259 0
2018-12-13 18:20:27 GMT 55.666000 13.154583 2,125 176 259 0
2018-12-13 18:20:20 GMT 55.674988 13.153639 2,125 176 260 0
2018-12-13 18:20:17 GMT 55.678619 13.153215 2,125 176 260 0
2018-12-13 18:20:11 GMT 55.685459 13.152523 2,125 176 261 0
2018-12-13 18:20:07 GMT 55.690659 13.151883 2,125 176 261 0
2018-12-13 18:20:00 GMT 55.698029 13.151134 2,125 176 260 0
2018-12-13 18:19:56 GMT 55.703796 13.150468 2,125 176 260 0
2018-12-13 18:19:49 GMT 55.711994 13.149605 2,125 176 259 0
2018-12-13 18:19:46 GMT 55.715836 13.149220 2,125 176 259 0
2018-12-13 18:19:38 GMT 55.724808 13.148221 2,125 176 258 0
2018-12-13 18:19:35 GMT 55.728382 13.147888 2,125 176 257 0
2018-12-13 18:19:28 GMT 55.737076 13.146973 2,125 176 256 0
2018-12-13 18:19:24 GMT 55.741699 13.146473 2,125 176 256 0
2018-12-13 18:19:19 GMT 55.747700 13.145828 2,125 176 255 0
2018-12-13 18:19:15 GMT 55.753510 13.145225 2,125 176 254 0
2018-12-13 18:19:08 GMT 55.761806 13.144283 2,125 176 253 0
2018-12-13 18:19:04 GMT 55.765320 13.143893 2,125 176 252 0
2018-12-13 18:18:58 GMT 55.772186 13.143144 2,125 176 249 -128
2018-12-13 18:18:53 GMT 55.777962 13.142481 2,125 176 248 -256
2018-12-13 18:18:46 GMT 55.785782 13.141646 2,175 176 250 -576
2018-12-13 18:18:43 GMT 55.789692 13.141193 2,200 176 252 -832
2018-12-13 18:18:37 GMT 55.796116 13.140421 2,275 176 253 -1024
2018-12-13 18:18:33 GMT 55.801941 13.139732 2,375 176 254 -1024
2018-12-13 18:18:26 GMT 55.808899 13.138899 2,475 176 255 -1024
2018-12-13 18:18:21 GMT 55.815620 13.138103 2,575 176 256 -1024
2018-12-13 18:18:16 GMT 55.821075 13.137484 2,650 176 257 -1024
2018-12-13 18:18:10 GMT 55.828079 13.136569 2,725 175 255 -960
2018-12-13 18:18:03 GMT 55.837006 13.135487 2,900 175 254 -1920
2018-12-13 18:18:00 GMT 55.840439 13.135071 2,975 175 255 -1984
2018-12-13 18:17:55 GMT 55.845600 13.134413 3,125 175 255 -1984
2018-12-13 18:17:50 GMT 55.852676 13.133469 3,325 175 255 -2048
2018-12-13 18:17:45 GMT 55.857750 13.132868 3,475 175 255 -2048
2018-12-13 18:17:40 GMT 55.869808 13.131323 3,725 176 256 -1984
2018-12-13 18:17:35 GMT 55.869808 13.131323 3,825 176 256 -1984
2018-12-13 18:17:28 GMT 55.877380 13.130410 4,025 176 256 -1984
2018-12-13 18:17:23 GMT 55.884842 13.129494 4,200 176 256 -1984
2018-12-13 18:17:19 GMT 55.888523 13.129091 4,350 175 257 -1984
2018-12-13 18:17:12 GMT 55.896744 13.127996 4,575 175 258 -2048
2018-12-13 18:17:06 GMT 55.903748 13.127081 4,775 175 258 -2048
2018-12-13 18:17:01 GMT 55.909981 13.126259 4,950 175 259 -1984
2018-12-13 18:16:57 GMT 55.914032 13.125658 5,050 175 259 -1984
2018-12-13 18:16:51 GMT 55.921852 13.124456 5,425 174 261 -2048
2018-12-13 18:16:48 GMT 55.934235 13.122568 5,650 174 261 -1984
2018-12-13 18:16:41 GMT 55.934235 13.122568 5,625 174 261 -2048
2018-12-13 18:16:37 GMT 55.938797 13.121796 5,875 174 260 -1984
2018-12-13 18:16:31 GMT 55.946106 13.120594 5,950 174 260 -2048
2018-12-13 18:16:25 GMT 55.954376 13.119174 6,175 174 260 -1920
2018-12-13 18:16:19 GMT 55.960354 13.118191 6,300 174 259 -1664
2018-12-13 18:16:14 GMT 55.965729 13.117260 6,450 174 259 -1152
2018-12-13 18:16:10 GMT 55.970764 13.116427 6,525 175 259 -1088
2018-12-13 18:16:06 GMT 55.976879 13.115616 6,625 178 262 -1152
2018-12-13 18:16:00 GMT 55.983353 13.115429 6,725 179 264 -1152
2018-12-13 18:15:54 GMT 55.990311 13.115345 6,825 179 267 -1088
2018-12-13 18:15:49 GMT 55.996105 13.115358 6,925 179 266 -1088
2018-12-13 18:15:43 GMT 56.003647 13.115273 7,000 180 268 -1088
2018-12-13 18:15:39 GMT 56.009090 13.115273 7,100 180 269 -448
2018-12-13 18:15:33 GMT 56.015842 13.115273 7,125 180 271 -640
2018-12-13 18:15:29 GMT 56.021755 13.115273 7,175 180 272 -576
2018-12-13 18:15:24 GMT 56.028969 13.115273 7,250 180 274 -576
2018-12-13 18:15:19 GMT 56.037460 13.115345 7,300 180 277 -640
2018-12-13 18:15:12 GMT 56.043594 13.115345 7,375 179 278 -576
2018-12-13 18:15:09 GMT 56.047451 13.115273 7,375 180 278 -640
2018-12-13 18:15:03 GMT 56.055908 13.115262 7,450 179 279 -640
2018-12-13 18:14:58 GMT 56.060852 13.115179 7,500 179 280 -576
2018-12-13 18:14:52 GMT 56.069412 13.115096 7,625 179 282 -576
2018-12-13 18:14:47 GMT 56.074776 13.115015 7,600 179 283 -640
2018-12-13 18:14:42 GMT 56.083668 13.114843 7,650 179 285 -640
2018-12-13 18:14:38 GMT 56.087585 13.114763 7,700 179 286 -640
2018-12-13 18:14:31 GMT 56.097519 13.114513 7,775 179 288 -512
2018-12-13 18:14:27 GMT 56.101639 13.114414 7,800 179 289 -448
2018-12-13 18:14:20 GMT 56.111298 13.114180 7,850 179 290 -448
2018-12-13 18:14:16 GMT 56.116013 13.114097 7,875 179 291 -384
2018-12-13 18:14:10 GMT 56.129333 13.113764 7,950 179 291 -384
2018-12-13 18:13:56 GMT 56.143066 13.113431 8,000 179 289 0
2018-12-13 18:13:46 GMT 56.157211 13.113098 8,000 179 289 64
2018-12-13 18:13:38 GMT 56.167603 13.112765 8,000 179 287 0
2018-12-13 18:13:35 GMT 56.171047 13.112698 8,000 179 287 0
2018-12-13 18:13:25 GMT 56.184593 13.112354 8,000 179 286 0
2018-12-13 18:13:15 GMT 56.197628 13.112097 8,000 179 284 0
2018-12-13 18:13:05 GMT 56.211407 13.111839 8,000 179 283 0
2018-12-13 18:12:54 GMT 56.225143 13.111683 8,000 179 281 0
2018-12-13 18:12:44 GMT 56.238052 13.111517 8,000 179 278 0
2018-12-13 18:12:33 GMT 56.251907 13.111496 8,000 180 276 0
2018-12-13 18:12:24 GMT 56.264374 13.111434 8,000 180 274 0
2018-12-13 18:12:15 GMT 56.276413 13.111517 8,000 180 273 0
2018-12-13 18:12:02 GMT 56.292114 13.111600 8,000 181 274 0
2018-12-13 18:11:53 GMT 56.303257 13.111753 8,000 181 274 0
2018-12-13 18:11:42 GMT 56.316383 13.112011 8,000 181 275 0
2018-12-13 18:11:32 GMT 56.329742 13.112266 8,000 181 277 0
2018-12-13 18:11:22 GMT 56.343201 13.112682 8,000 181 279 0
2018-12-13 18:11:12 GMT 56.356155 13.113015 8,000 181 282 0
2018-12-13 18:11:01 GMT 56.369732 13.113384 8,000 181 285 0
2018-12-13 18:10:52 GMT 56.382111 13.113764 8,000 181 287 0
2018-12-13 18:10:40 GMT 56.397263 13.114263 8,000 181 288 -64
2018-12-13 18:10:30 GMT 56.411407 13.114596 8,000 181 289 0
2018-12-13 18:10:20 GMT 56.426743 13.115012 8,000 181 289 0
2018-12-13 18:10:09 GMT 56.440796 13.115345 8,000 181 289 0
2018-12-13 18:10:00 GMT 56.450912 13.115595 8,000 181 288 0
2018-12-13 18:09:57 GMT 56.454784 13.115702 8,000 181 288 0
2018-12-13 18:09:50 GMT 56.464920 13.115928 8,000 181 288 0
2018-12-13 18:09:47 GMT 56.468933 13.116045 8,000 181 288 0
2018-12-13 18:09:39 GMT 56.479595 13.116302 8,000 181 288 0
2018-12-13 18:09:36 GMT 56.483047 13.116427 8,000 181 288 0
2018-12-13 18:09:28 GMT 56.493851 13.116760 8,000 181 288 0
2018-12-13 18:09:25 GMT 56.498356 13.116817 8,000 181 288 64
2018-12-13 18:09:19 GMT 56.505665 13.117075 8,000 181 288 0
2018-12-13 18:09:15 GMT 56.511532 13.117247 8,000 181 288 0
2018-12-13 18:09:09 GMT 56.519398 13.117504 8,000 181 288 0
2018-12-13 18:09:05 GMT 56.525528 13.117759 8,000 181 287 0
2018-12-13 18:08:58 GMT 56.533218 13.118009 8,000 182 287 0
2018-12-13 18:08:54 GMT 56.539490 13.118258 8,000 181 287 0
2018-12-13 18:08:46 GMT 56.550495 13.118620 8,000 181 287 0
2018-12-13 18:08:43 GMT 56.553146 13.118706 8,000 181 287 0
2018-12-13 18:08:36 GMT 56.563622 13.119049 8,000 181 287 0
2018-12-13 18:08:33 GMT 56.567486 13.119135 8,000 181 287 0
2018-12-13 18:08:28 GMT 56.573593 13.119257 8,000 181 286 -64
2018-12-13 18:08:22 GMT 56.581009 13.119424 8,000 181 286 0
2018-12-13 18:08:18 GMT 56.586823 13.119507 8,000 181 286 0
2018-12-13 18:08:12 GMT 56.594788 13.119650 8,000 181 286 64
2018-12-13 18:08:07 GMT 56.601097 13.119714 8,000 183 286 128
2018-12-13 18:08:04 GMT 56.605591 13.120251 8,000 187 287 64
2018-12-13 18:08:01 GMT 56.608780 13.120865 7,975 193 290 -128
2018-12-13 18:07:57 GMT 56.614178 13.123258 8,000 201 293 -128
2018-12-13 18:07:51 GMT 56.622185 13.129460 8,000 206 294 0
2018-12-13 18:07:47 GMT 56.626980 13.133624 8,000 206 293 0
2018-12-13 18:07:42 GMT 56.632736 13.138618 8,000 206 293 0
2018-12-13 18:07:37 GMT 56.639595 13.144521 8,000 206 293 0
2018-12-13 18:07:30 GMT 56.648163 13.151836 8,000 206 291 0
2018-12-13 18:07:26 GMT 56.652283 13.155355 8,000 206 290 0
2018-12-13 18:07:20 GMT 56.660431 13.162308 8,000 206 289 0
2018-12-13 18:07:16 GMT 56.665054 13.166256 8,000 206 289 0
2018-12-13 18:07:12 GMT 56.670135 13.170633 8,000 206 288 0
2018-12-13 18:07:09 GMT 56.673626 13.173582 8,000 206 287 0
2018-12-13 18:07:05 GMT 56.677582 13.176949 8,000 206 287 0
2018-12-13 18:06:59 GMT 56.686478 13.184538 8,000 206 285 0
2018-12-13 18:06:55 GMT 56.689686 13.187315 8,000 206 284 0
2018-12-13 18:06:50 GMT 56.695999 13.192778 8,000 206 284 0
2018-12-13 18:06:45 GMT 56.702023 13.197947 8,000 206 282 0
2018-12-13 18:06:37 GMT 56.711334 13.206009 8,000 206 280 0
2018-12-13 18:06:29 GMT 56.720551 13.213895 8,000 206 278 0
2018-12-13 18:06:25 GMT 56.725811 13.218413 8,000 206 276 0
2018-12-13 18:06:19 GMT 56.732143 13.223818 8,000 206 275 0
2018-12-13 18:06:14 GMT 56.738022 13.228912 8,000 206 273 0
2018-12-13 18:06:08 GMT 56.744614 13.234577 8,000 206 271 0
2018-12-13 18:06:04 GMT 56.749146 13.238525 8,000 206 269 0
2018-12-13 18:05:58 GMT 56.755646 13.244104 8,000 206 266 0
2018-12-13 18:05:53 GMT 56.761002 13.248825 8,000 206 263 0
2018-12-13 18:05:48 GMT 56.766815 13.253889 8,000 206 261 0
2018-12-13 18:05:43 GMT 56.772690 13.259080 8,000 206 259 0
2018-12-13 18:05:37 GMT 56.778507 13.264219 8,000 206 255 0
2018-12-13 18:05:33 GMT 56.782745 13.267940 8,000 206 253 0
2018-12-13 18:05:27 GMT 56.789772 13.274231 8,000 207 250 64
2018-12-13 18:05:23 GMT 56.793495 13.277509 8,000 206 246 64
2018-12-13 18:05:16 GMT 56.800461 13.283758 8,000 207 243 64
2018-12-13 18:05:12 GMT 56.804672 13.287535 8,000 207 242 0
2018-12-13 18:05:09 GMT 56.808022 13.290533 8,000 207 242 0
2018-12-13 18:05:06 GMT 56.810532 13.292770 8,000 207 242 0
2018-12-13 18:05:02 GMT 56.814651 13.296547 8,000 207 242 0
2018-12-13 18:04:59 GMT 56.818588 13.300066 8,000 207 241 0
2018-12-13 18:04:55 GMT 56.821896 13.303114 8,000 207 241 0
2018-12-13 18:04:51 GMT 56.825478 13.306393 8,000 207 241 0
2018-12-13 18:04:48 GMT 56.828979 13.309593 8,000 207 240 0
2018-12-13 18:04:45 GMT 56.831577 13.311886 8,000 207 240 0
2018-12-13 18:04:41 GMT 56.835346 13.315430 8,000 207 240 0
2018-12-13 18:04:35 GMT 56.841911 13.321454 8,000 207 239 -64
2018-12-13 18:04:31 GMT 56.845680 13.324910 8,000 207 238 0
2018-12-13 18:04:25 GMT 56.852058 13.330757 8,000 207 236 0
2018-12-13 18:04:21 GMT 56.855457 13.333858 8,000 207 233 0
2018-12-13 18:04:11 GMT 56.865646 13.343239 8,025 207 229 -64
2018-12-13 18:04:03 GMT 56.873055 13.350072 8,025 207 222 64
2018-12-13 18:04:00 GMT 56.875214 13.352079 8,000 207 218 64
2018-12-13 18:03:53 GMT 56.884277 13.360491 8,000 207 207 64
2018-12-13 18:03:50 GMT 56.884277 13.360491 8,000 207 205 0
2018-12-13 18:03:43 GMT 56.891006 13.366756 8,000 208 197 -256
2018-12-13 18:03:39 GMT 56.893024 13.368678 8,000 207 197 -320
2018-12-13 18:03:32 GMT 56.899109 13.374224 8,050 207 199 -640
2018-12-13 18:03:29 GMT 56.901592 13.376475 8,075 207 199 -832
2018-12-13 18:03:22 GMT 56.907074 13.381433 8,175 206 201 -1216
2018-12-13 18:03:19 GMT 56.910065 13.384183 8,250 206 201 -1600
2018-12-13 18:03:11 GMT 56.916348 13.389676 8,475 206 197 -2048
2018-12-13 18:03:08 GMT 56.918793 13.391905 8,575 207 195 -1920
2018-12-13 18:02:58 GMT 56.926620 13.399029 8,900 207 185 -2112
2018-12-13 18:02:48 GMT 56.934677 13.406410 9,300 207 190 -2112
2018-12-13 18:02:41 GMT 56.940090 13.411471 9,500 207 191 -2112
2018-12-13 18:02:37 GMT 56.943024 13.414218 9,625 207 194 -2112
2018-12-13 18:02:30 GMT 56.948959 13.419800 9,900 208 197 -2176
2018-12-13 18:02:27 GMT 56.951405 13.422103 10,000 208 199 -2112
2018-12-13 18:02:20 GMT 56.957153 13.427439 10,225 207 206 -1664
2018-12-13 18:02:17 GMT 56.968861 13.438228 14,125 207 233 -3968
2018-12-13 18:02:07 GMT 56.968861 13.438228 10,600 207 225 -2368
2018-12-13 18:01:57 GMT 56.978497 13.447088 11,125 207 231 -4032
2018-12-13 18:01:46 GMT 56.988922 13.456621 11,850 207 231 -3968
2018-12-13 18:01:36 GMT 56.998169 13.465033 12,475 207 234 -3968
2018-12-13 18:01:28 GMT 57.006134 13.472328 13,025 207 235 -4032
2018-12-13 18:01:25 GMT 57.008896 13.474820 13,225 207 236 -4032
2018-12-13 18:01:18 GMT 57.016251 13.481512 13,725 207 237 -3968
2018-12-13 18:01:15 GMT 57.018810 13.483857 14,675 207 238 -3968
2018-12-13 18:01:06 GMT 57.030727 13.494844 14,675 207 241 -4032
2018-12-13 18:00:55 GMT 57.038967 13.502374 15,225 207 244 -3968
2018-12-13 18:00:48 GMT 57.045868 13.508720 15,950 208 262 -3968
2018-12-13 18:00:44 GMT 57.050079 13.512583 15,950 207 248 -4032
2018-12-13 18:00:34 GMT 57.060104 13.521852 16,600 207 253 -4032
2018-12-13 18:00:29 GMT 57.065456 13.526828 16,950 208 255 -4032
2018-12-13 18:00:24 GMT 57.071136 13.532238 17,325 208 258 -3968
2018-12-13 18:00:18 GMT 57.077087 13.537989 17,625 208 263 -4032
2018-12-13 18:00:14 GMT 57.081848 13.542624 17,975 208 264 -3968
2018-12-13 18:00:08 GMT 57.088303 13.548889 18,400 209 270 -3968
2018-12-13 18:00:05 GMT 57.091526 13.552167 18,800 209 272 -3968
2018-12-13 17:59:58 GMT 57.100323 13.560850 19,725 209 279 -4032
2018-12-13 17:59:52 GMT 57.105469 13.566055 19,375 209 279 -4032
2018-12-13 17:59:47 GMT 57.111122 13.571836 19,725 210 282 -3968
2018-12-13 17:59:44 GMT 57.115593 13.576444 19,975 210 285 -3904
2018-12-13 17:59:36 GMT 57.124950 13.586190 20,500 210 289 -3968
2018-12-13 17:59:32 GMT 57.129513 13.590974 20,775 210 293 -4032
2018-12-13 17:59:22 GMT 57.140396 13.602448 21,675 211 299 -3968
2018-12-13 17:59:13 GMT 57.153030 13.616180 22,075 211 305 -3968
2018-12-13 17:59:02 GMT 57.164886 13.629141 22,725 211 310 -3968
2018-12-13 17:58:59 GMT 57.169327 13.634033 22,950 211 312 -3968
2018-12-13 17:58:52 GMT 57.177750 13.643303 23,400 211 314 -4032
2018-12-13 17:58:47 GMT 57.182999 13.649095 23,675 211 315 -4032
2018-12-13 17:58:41 GMT 57.190960 13.657689 24,100 211 317 -3968
2018-12-13 17:58:38 GMT 57.194870 13.661842 24,300 210 318 -3968
2018-12-13 17:58:31 GMT 57.203575 13.670979 24,800 212 321 -3904
2018-12-13 17:58:28 GMT 57.208511 13.676472 25,000 214 323 -3904
2018-12-13 17:58:24 GMT 57.212906 13.681755 26,300 227 367 -3904
2018-12-13 17:58:20 GMT 57.217438 13.687763 25,475 220 336 -3968
2018-12-13 17:58:15 GMT 57.223686 13.697293 25,725 228 380 -3904
2018-12-13 17:57:57 GMT 57.245705 13.735480 26,775 225 347 -3904
2018-12-13 17:57:53 GMT 57.248592 13.740530 27,250 224 340 -3904
2018-12-13 17:57:50 GMT 57.252457 13.747263 27,450 224 341 -3904
2018-12-13 17:57:43 GMT 57.259998 13.760553 27,900 224 343 -3904
2018-12-13 17:57:39 GMT 57.264606 13.768704 28,150 224 345 -3904
2018-12-13 17:57:34 GMT 57.271774 13.781285 28,550 224 346 -3904
2018-12-13 17:57:30 GMT 57.275497 13.787842 28,775 224 348 -3968
2018-12-13 17:57:23 GMT 57.283997 13.802862 29,250 224 351 -3904
2018-12-13 17:57:18 GMT 57.289078 13.811703 29,425 224 352 -3904
2018-12-13 17:57:13 GMT 57.295097 13.822396 29,875 224 358 -3904
2018-12-13 17:57:10 GMT 57.299286 13.829749 30,125 224 357 -3904
2018-12-13 17:57:04 GMT 57.306923 13.843305 30,500 224 362 -3968
2018-12-13 17:57:01 GMT 57.310181 13.849039 30,675 224 362 -3904
2018-12-13 17:56:57 GMT 57.314419 13.856595 30,950 224 362 -3904
2018-12-13 17:56:53 GMT 57.319397 13.865366 31,500 224 367 -3904
2018-12-13 17:56:49 GMT 57.327255 13.879337 31,600 224 370 -3968
2018-12-13 17:56:42 GMT 57.332932 13.889465 31,900 224 374 -3968
2018-12-13 17:56:38 GMT 57.337326 13.897190 32,200 224 377 -3904
2018-12-13 17:56:32 GMT 57.346630 13.913830 32,625 224 384 -3840
2018-12-13 17:56:28 GMT 57.350464 13.920622 32,850 224 388 -3904
2018-12-13 17:56:25 GMT 57.353706 13.926323 32,975 224 390 -4096
2018-12-13 17:56:22 GMT 57.365112 13.946629 33,525 224 394 -4416
2018-12-13 17:56:17 GMT 57.365112 13.946629 33,675 224 399 -4608
2018-12-13 17:56:14 GMT 57.368683 13.953066 33,800 224 401 -4480
2018-12-13 17:56:10 GMT 57.373535 13.961649 34,050 224 408 -3712
2018-12-13 17:56:07 GMT 57.377869 13.969382 34,325 225 415 -3392
2018-12-13 17:56:04 GMT 57.382278 13.977270 34,425 225 422 -3264
2018-12-13 17:56:00 GMT 57.387314 13.986368 34,625 225 432 -4032
2018-12-13 17:55:57 GMT 57.392624 13.995810 34,850 224 433 -3968
2018-12-13 17:55:53 GMT 57.396954 14.003581 35,050 224 434 -4032
2018-12-13 17:55:49 GMT 57.403145 14.014656 35,350 224 437 -4096
2018-12-13 17:55:45 GMT 57.410065 14.026966 35,675 224 439 -3968
2018-12-13 17:55:42 GMT 57.415714 14.037072 35,925 224 442 -3904
2018-12-13 17:55:35 GMT 57.425446 14.054518 36,350 225 446 -4096
2018-12-13 17:55:31 GMT 57.430618 14.063787 36,700 224 451 -4160
2018-12-13 17:55:27 GMT 57.437027 14.075289 37,050 224 451 -3904
2018-12-13 17:55:24 GMT 57.440781 14.081984 37,075 224 451 -3904
2018-12-13 17:55:21 GMT 57.445461 14.090320 37,275 224 449 -4032
2018-12-13 17:55:14 GMT 57.455017 14.107389 37,700 224 444 -4032
2018-12-13 17:55:11 GMT 57.460648 14.117432 37,950 224 442 -4032
2018-12-13 17:55:04 GMT 57.470306 14.134769 38,400 225 437 -3520
2018-12-13 17:55:00 GMT 57.475937 14.144897 38,625 225 431 -2624
2018-12-13 17:54:54 GMT 57.483673 14.158716 38,875 225 428 -2112
2018-12-13 17:54:50 GMT 57.491035 14.172009 39,100 225 425 -1408
2018-12-13 17:54:44 GMT 57.505142 14.197437 39,275 225 423 -1216
2018-12-13 17:54:40 GMT 57.505142 14.197437 39,300 225 423 -1088
2018-12-13 17:54:34 GMT 57.512878 14.211330 39,400 225 423 -1024
2018-12-13 17:54:29 GMT 57.527302 14.237307 39,500 225 423 -960
2018-12-13 17:54:24 GMT 57.527302 14.237307 39,575 225 423 -1024
2018-12-13 17:54:21 GMT 57.531784 14.245405 39,700 225 423 -1024
2018-12-13 17:54:14 GMT 57.541920 14.263709 39,750 225 423 -1024
2018-12-13 17:54:08 GMT 57.548355 14.275360 39,850 225 423 -1024
2018-12-13 17:54:02 GMT 57.556915 14.290810 39,925 225 423 -1024
2018-12-13 17:53:58 GMT 57.562958 14.301710 40,025 225 423 -1024
2018-12-13 17:53:52 GMT 57.572502 14.318907 40,125 225 423 -1024
2018-12-13 17:53:49 GMT 57.577560 14.328060 40,175 225 423 -1024
2018-12-13 17:53:42 GMT 57.585846 14.343081 40,275 225 424 -1024
2018-12-13 17:53:37 GMT 57.592892 14.355764 40,375 225 424 -1088
2018-12-13 17:53:32 GMT 57.599899 14.368486 40,450 225 424 -1088
2018-12-13 17:53:27 GMT 57.607090 14.381458 40,550 225 425 -1024
2018-12-13 17:53:21 GMT 57.614677 14.395279 40,625 225 425 -1024
2018-12-13 17:53:17 GMT 57.621010 14.406797 40,700 225 425 -1024
2018-12-13 17:53:11 GMT 57.629623 14.422391 40,800 225 426 -1024
2018-12-13 17:53:04 GMT 57.638763 14.439039 40,900 225 426 -1024
2018-12-13 17:53:00 GMT 57.644577 14.449596 41,000 225 427 -1024
2018-12-13 17:52:56 GMT 57.658676 14.475260 42,050 225 420 -1024
2018-12-13 17:52:51 GMT 57.658676 14.475260 41,150 225 426 -960
2018-12-13 17:52:46 GMT 57.664169 14.485302 41,225 225 425 -1024
2018-12-13 17:52:43 GMT 57.668491 14.493270 41,275 225 425 -1024
2018-12-13 17:52:39 GMT 57.674126 14.503459 41,300 225 425 -1024
2018-12-13 17:52:33 GMT 57.682972 14.519584 41,400 225 425 -960
2018-12-13 17:52:30 GMT 57.687580 14.528001 41,475 225 423 -960
2018-12-13 17:52:27 GMT 57.692505 14.536972 41,550 225 423 -960
2018-12-13 17:52:22 GMT 57.698364 14.547701 41,625 225 423 -960
2018-12-13 17:52:19 GMT 57.702290 14.554847 41,650 225 422 -1024
2018-12-13 17:52:14 GMT 57.709259 14.567528 42,050 225 420 -1024
2018-12-13 17:52:08 GMT 57.718140 14.583836 41,800 225 421 -1024
2018-12-13 17:52:03 GMT 57.724819 14.596046 42,050 225 420 -1024
2018-12-13 17:52:00 GMT 57.728439 14.602602 41,975 225 418 -1024
2018-12-13 17:51:50 GMT 57.749077 14.640472 42,225 225 415 -960
2018-12-13 17:51:41 GMT 57.754288 14.649994 42,275 225 413 -960
2018-12-13 17:51:38 GMT 57.759201 14.659040 42,300 225 412 -1024
2018-12-13 17:51:32 GMT 57.768021 14.675171 42,450 225 409 -960
2018-12-13 17:51:28 GMT 57.774075 14.686340 42,500 225 408 -960
2018-12-13 17:51:25 GMT 57.780121 14.697492 42,625 225 405 -1024
2018-12-13 17:51:19 GMT 57.788818 14.713440 42,675 225 403 -1024
2018-12-13 17:51:16 GMT 57.791996 14.719391 42,725 225 403 -1024
2018-12-13 17:51:08 GMT 57.798477 14.731337 42,800 225 401 -960
2018-12-13 17:51:04 GMT 57.805218 14.743744 42,875 225 398 -768
2018-12-13 17:50:58 GMT 57.811752 14.755790 42,950 225 396 -512
2018-12-13 17:50:52 GMT 57.820496 14.771916 43,000 225 395 -192
2018-12-13 17:50:46 GMT 57.829052 14.787689 43,000 225 393 64
2018-12-13 17:50:40 GMT 57.835785 14.800090 43,000 225 389 -64
2018-12-13 17:50:37 GMT 57.839897 14.807739 43,000 225 390 0
2018-12-13 17:50:33 GMT 57.845158 14.817444 43,000 225 388 0
2018-12-13 17:50:29 GMT 57.851028 14.828353 43,000 225 386 192
2018-12-13 17:50:26 GMT 57.852905 14.831897 43,000 225 387 64
2018-12-13 17:50:18 GMT 57.864803 14.853882 42,950 225 383 512
2018-12-13 17:50:15 GMT 57.866852 14.857635 42,975 225 384 448
2018-12-13 17:50:10 GMT 57.875420 14.873566 42,925 225 383 448
2018-12-13 17:50:06 GMT 57.878586 14.879387 42,900 225 383 512
2018-12-13 17:50:03 GMT 57.883099 14.887848 42,875 225 383 512
2018-12-13 17:49:57 GMT 57.894196 14.908359 42,800 225 382 448
2018-12-13 17:49:54 GMT 57.904358 14.927230 42,625 225 379 512
2018-12-13 17:49:46 GMT 57.904358 14.927230 42,725 225 381 512
2018-12-13 17:49:43 GMT 57.908386 14.934673 42,700 225 381 512
2018-12-13 17:49:36 GMT 57.916901 14.950532 42,650 225 377 512
2018-12-13 17:49:33 GMT 57.920246 14.956787 42,625 225 380 512
2018-12-13 17:49:25 GMT 57.934021 14.982339 42,525 225 379 512
2018-12-13 17:49:13 GMT 57.945202 15.003204 42,450 225 379 512
2018-12-13 17:49:04 GMT 57.956406 15.024070 42,375 225 378 512
2018-12-13 17:49:00 GMT 57.961212 15.033018 42,350 225 378 512
2018-12-13 17:48:54 GMT 57.968811 15.047194 42,300 225 377 512
2018-12-13 17:48:51 GMT 57.972618 15.054291 42,250 225 377 512
2018-12-13 17:48:43 GMT 57.981884 15.071594 42,200 225 376 512
2018-12-13 17:48:40 GMT 57.985611 15.078558 42,175 225 376 512
2018-12-13 17:48:33 GMT 58.000351 15.106201 42,075 225 374 448
2018-12-13 17:48:28 GMT 58.000351 15.106201 42,075 225 374 512
2018-12-13 17:48:23 GMT 58.007069 15.118835 41,975 226 374 512
2018-12-13 17:48:20 GMT 58.011723 15.127625 41,975 226 373 512
2018-12-13 17:48:12 GMT 58.019989 15.143324 41,950 226 372 512
2018-12-13 17:48:06 GMT 58.027496 15.157589 41,825 226 371 512
2018-12-13 17:48:02 GMT 58.032074 15.166449 41,850 226 371 512
2018-12-13 17:47:59 GMT 58.036743 15.175486 41,825 226 371 512
2018-12-13 17:47:51 GMT 58.045753 15.192719 41,775 224 370 512
2018-12-13 17:47:48 GMT 58.049377 15.199142 41,750 223 370 512
2018-12-13 17:47:42 GMT 58.058510 15.213684 41,700 219 369 512
2018-12-13 17:47:36 GMT 58.065628 15.224216 41,650 219 368 512
2018-12-13 17:47:32 GMT 58.070709 15.231835 41,600 219 368 512
2018-12-13 17:47:29 GMT 58.076019 15.239809 41,575 219 367 512
2018-12-13 17:47:23 GMT 58.083710 15.251238 41,525 219 365 512
2018-12-13 17:47:19 GMT 58.089569 15.260010 41,475 219 365 512
2018-12-13 17:47:15 GMT 58.092861 15.264954 41,475 219 365 512
2018-12-13 17:47:11 GMT 58.099640 15.275072 41,425 219 364 512
2018-12-13 17:47:08 GMT 58.102798 15.279767 41,400 219 363 448
2018-12-13 17:47:05 GMT 58.106224 15.284912 41,375 219 363 512
2018-12-13 17:47:00 GMT 58.113327 15.295627 41,350 219 363 512
2018-12-13 17:46:55 GMT 58.119213 15.304413 41,300 219 362 512
2018-12-13 17:46:49 GMT 58.127079 15.316223 41,200 219 360 512
2018-12-13 17:46:44 GMT 58.133881 15.326371 41,225 219 360 512
2018-12-13 17:46:40 GMT 58.138550 15.333459 41,150 219 359 512
2018-12-13 17:46:37 GMT 58.143002 15.340027 41,125 219 358 512
2018-12-13 17:46:31 GMT 58.152191 15.353925 41,100 219 357 576
2018-12-13 17:46:28 GMT 58.160202 15.365886 41,025 219 357 576
2018-12-13 17:46:24 GMT 58.160202 15.365886 41,025 219 357 512
2018-12-13 17:46:18 GMT 58.171909 15.383514 40,975 219 353 -64
2018-12-13 17:46:15 GMT 58.174713 15.387770 40,975 219 353 -64
2018-12-13 17:46:08 GMT 58.180618 15.396630 40,975 219 352 64
2018-12-13 17:46:05 GMT 58.184292 15.402100 40,975 219 350 576
2018-12-13 17:46:02 GMT 58.187347 15.406730 40,875 219 348 1024
2018-12-13 17:45:58 GMT 58.193390 15.415856 40,900 219 348 960
2018-12-13 17:45:55 GMT 58.197418 15.421881 40,850 219 348 1024
2018-12-13 17:45:52 GMT 58.200073 15.425868 40,600 219 363 1472
2018-12-13 17:45:49 GMT 58.205109 15.433487 40,675 219 350 960
2018-12-13 17:45:45 GMT 58.209572 15.440186 40,700 219 350 960
2018-12-13 17:45:40 GMT 58.216141 15.450144 40,600 219 363 1472
2018-12-13 17:45:37 GMT 58.219952 15.455841 40,550 219 350 1024
2018-12-13 17:45:34 GMT 58.223740 15.461573 40,475 219 351 1216
2018-12-13 17:45:31 GMT 58.233261 15.476015 40,450 219 363 1472
2018-12-13 17:45:26 GMT 58.233261 15.476015 40,375 219 351 1408
2018-12-13 17:45:23 GMT 58.241043 15.487710 40,225 219 355 1472
2018-12-13 17:45:16 GMT 58.246536 15.496039 40,150 219 354 1472
2018-12-13 17:45:11 GMT 58.252445 15.505005 40,000 219 367 1536
2018-12-13 17:45:07 GMT 58.263245 15.521393 39,800 219 358 1536
2018-12-13 17:44:58 GMT 58.270412 15.532196 39,625 219 361 1472
2018-12-13 17:44:55 GMT 58.273766 15.537323 39,625 219 361 1472
2018-12-13 17:44:52 GMT 58.277573 15.543085 39,525 219 362 1472
2018-12-13 17:44:49 GMT 58.281494 15.549042 39,450 219 363 1472
2018-12-13 17:44:46 GMT 58.285400 15.555046 39,375 219 364 1472
2018-12-13 17:44:39 GMT 58.294621 15.569000 39,200 219 366 1536
2018-12-13 17:44:35 GMT 58.301239 15.579056 39,075 219 367 1600
2018-12-13 17:44:31 GMT 58.305237 15.585114 39,000 219 367 1600
2018-12-13 17:44:25 GMT 58.312775 15.596649 38,850 219 369 1728
2018-12-13 17:44:22 GMT 58.317478 15.603699 38,800 219 369 1792
2018-12-13 17:44:19 GMT 58.320782 15.608826 38,675 219 371 1920
2018-12-13 17:44:16 GMT 58.325089 15.615293 38,525 219 372 1984
2018-12-13 17:44:13 GMT 58.328697 15.620819 38,475 219 374 1984
2018-12-13 17:44:03 GMT 58.349213 15.652062 37,925 219 386 1984
2018-12-13 17:43:58 GMT 58.349213 15.652062 38,000 219 380 1984
2018-12-13 17:43:55 GMT 58.355373 15.661469 37,850 219 382 1984
2018-12-13 17:43:48 GMT 58.363220 15.673415 37,650 219 383 2048
2018-12-13 17:43:43 GMT 58.370407 15.684448 37,425 219 386 1984
2018-12-13 17:43:40 GMT 58.374878 15.691223 37,375 219 386 1984
2018-12-13 17:43:34 GMT 58.388306 15.711778 37,100 219 389 1984
2018-12-13 17:43:30 GMT 58.388306 15.711778 37,050 219 389 1984
2018-12-13 17:43:24 GMT 58.397003 15.725068 36,850 219 392 1984
2018-12-13 17:43:20 GMT 58.402809 15.733978 36,700 219 394 1920
2018-12-13 17:43:17 GMT 58.406765 15.740021 36,625 219 394 1920
2018-12-13 17:43:13 GMT 58.417706 15.756775 36,450 219 395 2048
2018-12-13 17:43:10 GMT 58.417706 15.756775 36,375 219 396 2112
2018-12-13 17:43:06 GMT 58.421539 15.762723 36,275 219 396 2176
2018-12-13 17:43:03 GMT 58.426552 15.770416 36,150 219 398 2176
2018-12-13 17:43:00 GMT 58.431995 15.778748 36,000 219 399 2240
2018-12-13 17:42:52 GMT 58.441498 15.793378 35,775 219 401 2304
2018-12-13 17:42:49 GMT 58.447998 15.803301 35,700 219 401 2368
2018-12-13 17:42:44 GMT 58.455273 15.814545 35,400 219 407 2304
2018-12-13 17:42:40 GMT 58.461094 15.823517 35,250 219 406 2304
2018-12-13 17:42:32 GMT 58.471344 15.839273 34,950 219 409 2304
2018-12-13 17:42:29 GMT 58.475941 15.846313 34,850 219 411 2304
2018-12-13 17:42:24 GMT 58.483612 15.858144 34,650 219 412 2240
2018-12-13 17:42:21 GMT 58.487766 15.864532 34,550 219 412 2240
2018-12-13 17:42:12 GMT 58.501419 15.885610 34,225 219 415 2176
2018-12-13 17:42:09 GMT 58.507690 15.895294 34,075 219 416 2176
2018-12-13 17:42:03 GMT 58.522064 15.917595 33,750 219 418 2176
2018-12-13 17:41:58 GMT 58.522064 15.917595 33,725 219 418 2176
2018-12-13 17:41:53 GMT 58.529289 15.928711 33,550 220 419 2176
2018-12-13 17:41:50 GMT 58.533646 15.935492 33,375 220 420 2176
2018-12-13 17:41:47 GMT 58.538742 15.943451 33,375 220 420 2176
2018-12-13 17:41:42 GMT 58.545868 15.954452 33,150 220 420 2176
2018-12-13 17:41:39 GMT 58.550381 15.961487 32,750 220 422 2176
2018-12-13 17:41:36 GMT 58.555527 15.969514 32,900 220 422 2176
2018-12-13 17:41:32 GMT 58.561615 15.978905 32,750 219 423 2048
2018-12-13 17:41:29 GMT 58.565369 15.984741 32,425 219 423 2048
2018-12-13 17:41:26 GMT 58.569763 15.991575 32,575 220 423 1984
2018-12-13 17:41:21 GMT 58.577053 16.002869 32,425 220 423 1984
2018-12-13 17:41:15 GMT 58.587250 16.018707 32,200 220 423 1984
2018-12-13 17:41:08 GMT 58.599258 16.037384 31,925 220 423 1984
2018-12-13 17:40:58 GMT 58.611969 16.057138 31,600 220 422 1984
2018-12-13 17:40:55 GMT 58.617321 16.065399 31,600 220 422 1984
2018-12-13 17:40:45 GMT 58.632915 16.089752 31,200 220 422 1984
2018-12-13 17:40:35 GMT 58.648911 16.114729 30,850 220 421 1984
2018-12-13 17:40:26 GMT 58.661453 16.134310 30,600 220 420 1984
2018-12-13 17:40:23 GMT 58.665504 16.140656 30,475 220 420 1984
2018-12-13 17:40:17 GMT 58.675919 16.156902 30,250 220 419 1984
2018-12-13 17:40:13 GMT 58.682373 16.167002 30,100 220 419 1984
2018-12-13 17:40:09 GMT 58.686871 16.174072 30,000 220 418 1984
2018-12-13 17:40:05 GMT 58.692875 16.183411 29,875 220 417 2048
2018-12-13 17:39:59 GMT 58.702141 16.197876 29,675 220 416 1984
2018-12-13 17:39:52 GMT 58.711349 16.212364 29,500 220 415 1920
2018-12-13 17:39:48 GMT 58.717484 16.221933 29,325 220 414 1920
2018-12-13 17:39:45 GMT 58.727234 16.237350 29,125 220 412 1920
2018-12-13 17:39:38 GMT 58.733002 16.246387 29,000 220 411 1920
2018-12-13 17:39:34 GMT 58.739044 16.255867 28,900 220 410 1920
2018-12-13 17:39:31 GMT 58.743477 16.262787 28,775 220 410 1984
2018-12-13 17:39:25 GMT 58.753601 16.278637 28,550 220 409 1984
2018-12-13 17:39:21 GMT 58.757954 16.285583 28,450 220 407 1984
2018-12-13 17:39:16 GMT 58.765137 16.296801 28,275 220 407 2048
2018-12-13 17:39:11 GMT 58.772964 16.309204 28,100 220 405 2048
2018-12-13 17:39:06 GMT 58.782669 16.324532 27,875 220 404 2048
2018-12-13 17:39:03 GMT 58.784119 16.326782 27,850 220 404 2048
2018-12-13 17:39:00 GMT 58.788162 16.333216 27,750 220 403 1984
2018-12-13 17:38:53 GMT 58.798550 16.349579 27,500 220 402 1984
2018-12-13 17:38:50 GMT 58.803131 16.356871 27,400 220 400 1984
2018-12-13 17:38:45 GMT 58.810867 16.369009 27,225 220 399 1984
2018-12-13 17:38:40 GMT 58.818146 16.380524 27,050 220 397 1984
2018-12-13 17:38:33 GMT 58.828079 16.396297 26,825 220 395 2048
2018-12-13 17:38:28 GMT 58.833755 16.405247 26,675 220 395 1984
2018-12-13 17:38:22 GMT 58.842773 16.419510 26,475 220 392 2112
2018-12-13 17:38:18 GMT 58.847534 16.427040 26,400 220 392 2368
2018-12-13 17:38:12 GMT 58.856735 16.441589 26,100 220 390 2496
2018-12-13 17:38:08 GMT 58.862183 16.450287 25,925 220 390 2432
2018-12-13 17:38:05 GMT 58.866516 16.457142 25,800 220 390 2368
2018-12-13 17:38:01 GMT 58.871544 16.465096 25,675 220 390 2368
2018-12-13 17:37:58 GMT 58.876526 16.473051 25,525 220 389 2304
2018-12-13 17:37:54 GMT 58.881409 16.480774 25,400 220 388 2304
2018-12-13 17:37:51 GMT 58.885277 16.486975 25,275 220 388 2304
2018-12-13 17:37:48 GMT 58.890957 16.495972 25,125 220 387 2368
2018-12-13 17:37:41 GMT 58.900085 16.510437 24,875 220 386 2368
2018-12-13 17:37:37 GMT 58.905151 16.518606 24,725 220 386 2304
2018-12-13 17:37:31 GMT 58.914505 16.533508 24,450 220 384 2048
2018-12-13 17:37:26 GMT 58.919540 16.541565 24,325 220 383 1984
2018-12-13 17:37:23 GMT 58.925034 16.550354 24,200 220 377 2560
2018-12-13 17:37:16 GMT 58.934250 16.565109 23,950 220 379 2304
2018-12-13 17:37:12 GMT 58.938400 16.571777 23,850 220 378 2496
2018-12-13 17:37:06 GMT 58.948074 16.587366 23,550 220 377 2624
2018-12-13 17:37:02 GMT 58.952087 16.593842 23,400 220 377 2560
2018-12-13 17:36:59 GMT 58.958267 16.603729 23,225 220 377 2560
2018-12-13 17:36:54 GMT 58.962433 16.610413 23,075 220 376 2432
2018-12-13 17:36:50 GMT 58.969627 16.622030 22,950 220 375 2368
2018-12-13 17:36:45 GMT 58.976532 16.633209 22,675 220 373 2240
2018-12-13 17:36:41 GMT 58.980659 16.639835 22,550 220 372 2112
2018-12-13 17:36:38 GMT 58.985271 16.647223 22,425 220 370 1856
2018-12-13 17:36:34 GMT 58.989761 16.654449 22,300 220 368 1664
2018-12-13 17:36:31 GMT 58.993835 16.660955 22,250 220 367 1600
2018-12-13 17:36:28 GMT 58.998909 16.669102 22,150 220 363 1728
2018-12-13 17:36:23 GMT 59.003567 16.676582 22,025 220 360 2112
2018-12-13 17:36:17 GMT 59.011990 16.690126 21,775 220 357 2688
2018-12-13 17:36:13 GMT 59.016830 16.697893 21,625 220 355 2624
2018-12-13 17:36:09 GMT 59.021767 16.705849 21,450 220 355 2560
2018-12-13 17:36:06 GMT 59.025787 16.712311 21,300 220 354 2496
2018-12-13 17:36:01 GMT 59.031590 16.721569 21,125 220 351 2560
2018-12-13 17:35:55 GMT 59.039223 16.733883 20,875 220 350 2624
2018-12-13 17:35:51 GMT 59.045334 16.743713 20,650 220 348 2624
2018-12-13 17:35:45 GMT 59.051514 16.753582 20,425 220 346 2560
2018-12-13 17:35:42 GMT 59.055588 16.760193 20,275 220 344 2560
2018-12-13 17:35:38 GMT 59.060852 16.768616 20,100 220 342 2880
2018-12-13 17:35:35 GMT 59.063759 16.773376 20,000 220 341 3008
2018-12-13 17:35:32 GMT 59.068737 16.781427 19,775 220 340 3136
2018-12-13 17:35:25 GMT 59.076607 16.794119 19,450 220 339 3072
2018-12-13 17:35:21 GMT 59.082642 16.803864 19,200 220 338 3136
2018-12-13 17:35:17 GMT 59.085777 16.808893 19,050 220 338 3072
2018-12-13 17:35:10 GMT 59.094635 16.823181 18,675 220 336 3008
2018-12-13 17:35:07 GMT 59.101181 16.833801 18,400 220 334 3200
2018-12-13 17:35:00 GMT 59.106400 16.842224 18,175 220 333 3136
2018-12-13 17:34:54 GMT 59.113403 16.853577 17,850 220 331 3072
2018-12-13 17:34:50 GMT 59.118210 16.861359 17,650 220 330 3136
2018-12-13 17:34:46 GMT 59.121853 16.867233 17,500 220 329 3136
2018-12-13 17:34:43 GMT 59.125717 16.873486 17,325 220 328 3008
2018-12-13 17:34:39 GMT 59.130978 16.881914 17,100 220 326 2880
2018-12-13 17:34:36 GMT 59.134140 16.886993 16,975 220 325 2944
2018-12-13 17:34:33 GMT 59.137402 16.892237 16,825 220 324 2944
2018-12-13 17:34:29 GMT 59.142338 16.900288 16,600 220 321 3072
2018-12-13 17:34:26 GMT 59.145767 16.905762 16,475 220 320 3200
2018-12-13 17:34:23 GMT 59.149319 16.911463 16,300 220 319 3328
2018-12-13 17:34:18 GMT 59.154877 16.920502 16,025 220 318 3136
2018-12-13 17:34:15 GMT 59.158398 16.926144 15,875 220 317 3008
2018-12-13 17:34:12 GMT 59.161789 16.931671 15,725 220 315 2944
2018-12-13 17:34:08 GMT 59.166229 16.938904 15,500 220 313 3200
2018-12-13 17:34:05 GMT 59.169430 16.944138 15,375 220 312 3264
2018-12-13 17:34:02 GMT 59.173233 16.950256 15,200 220 311 3328
2018-12-13 17:33:57 GMT 59.178322 16.958534 14,925 220 310 3456
2018-12-13 17:33:53 GMT 59.183350 16.966736 14,675 220 308 3520
2018-12-13 17:33:47 GMT 59.190491 16.978455 14,300 220 308 3264
2018-12-13 17:33:42 GMT 59.194931 16.985779 14,075 221 306 2944
2018-12-13 17:33:38 GMT 59.200203 16.994429 13,850 221 303 2688
2018-12-13 17:33:35 GMT 59.201832 16.997175 13,775 221 302 2816
2018-12-13 17:33:31 GMT 59.206161 17.004374 13,575 221 299 3520
2018-12-13 17:33:28 GMT 59.210258 17.011288 13,350 221 297 4480
2018-12-13 17:33:25 GMT 59.212955 17.015833 13,150 221 297 4800
2018-12-13 17:33:22 GMT 59.216820 17.022274 12,875 221 299 4864
2018-12-13 17:33:18 GMT 59.221008 17.029377 12,550 221 301 4800
2018-12-13 17:33:14 GMT 59.224045 17.034576 12,300 221 303 4736
2018-12-13 17:33:11 GMT 59.227669 17.040648 12,200 221 304 4608
2018-12-13 17:33:07 GMT 59.231670 17.047277 11,775 221 307 3968
2018-12-13 17:33:03 GMT 59.236324 17.054949 11,475 220 308 3776
2018-12-13 17:32:57 GMT 59.244232 17.067352 11,050 218 307 3520
2018-12-13 17:32:52 GMT 59.254204 17.081942 10,725 217 304 3648
2018-12-13 17:32:48 GMT 59.254204 17.081942 10,525 218 303 3840
2018-12-13 17:32:40 GMT 59.261902 17.094177 10,075 225 305 3904
2018-12-13 17:32:36 GMT 59.265610 17.101868 9,825 233 307 3264
2018-12-13 17:32:31 GMT 59.269379 17.112343 9,575 244 309 2496
2018-12-13 17:32:26 GMT 59.272385 17.125854 9,350 255 305 1664
2018-12-13 17:32:20 GMT 59.274124 17.143341 9,175 266 297 2368
2018-12-13 17:32:16 GMT 59.274445 17.154053 9,025 268 291 3584
2018-12-13 17:32:11 GMT 59.274685 17.167179 8,725 269 289 4096
2018-12-13 17:32:06 GMT 59.274902 17.178955 8,400 269 289 4096
2018-12-13 17:32:02 GMT 59.275150 17.193226 8,025 269 288 4160
2018-12-13 17:31:58 GMT 59.275223 17.199738 7,875 269 288 4224
2018-12-13 17:31:55 GMT 59.275383 17.208569 7,625 269 288 4096
2018-12-13 17:31:50 GMT 59.275589 17.221893 7,275 269 287 3392
2018-12-13 17:31:45 GMT 59.275772 17.235077 7,000 269 285 2880
2018-12-13 17:31:41 GMT 59.275909 17.247711 6,775 269 282 2944
2018-12-13 17:31:38 GMT 59.275955 17.251740 6,700 269 280 2944
2018-12-13 17:31:35 GMT 59.276093 17.262085 6,500 269 276 2880
2018-12-13 17:31:28 GMT 59.276314 17.278179 6,175 266 271 3136
2018-12-13 17:31:24 GMT 59.276688 17.286255 6,000 264 270 3008
2018-12-13 17:31:20 GMT 59.277710 17.297312 5,775 252 269 2880
2018-12-13 17:31:17 GMT 59.278736 17.303276 5,650 248 270 2944
2018-12-13 17:31:14 GMT 59.279938 17.308868 5,525 246 270 2944
2018-12-13 17:31:08 GMT 59.285248 17.331207 5,150 246 273 2944
2018-12-13 17:31:05 GMT 59.285248 17.331207 5,025 246 274 2752
2018-12-13 17:30:57 GMT 59.290924 17.355011 4,700 245 278 1984
2018-12-13 17:30:54 GMT 59.290924 17.355011 4,625 245 278 1984
2018-12-13 17:30:47 GMT 59.295319 17.373230 4,350 245 278 1984
2018-12-13 17:30:37 GMT 59.299896 17.392181 4,075 245 278 1984
2018-12-13 17:30:34 GMT 59.302151 17.401587 3,950 245 278 2048
2018-12-13 17:30:28 GMT 59.305641 17.415981 3,750 245 280 1856
2018-12-13 17:30:24 GMT 59.307690 17.424412 3,625 245 277 1664
2018-12-13 17:30:17 GMT 59.311462 17.439943 3,375 245 268 1664
2018-12-13 17:30:14 GMT 59.312943 17.446106 3,350 245 266 1664
2018-12-13 17:30:07 GMT 59.316628 17.461443 3,125 245 258 1600
2018-12-13 17:30:04 GMT 59.318398 17.468735 3,075 245 258 1600
2018-12-13 17:29:55 GMT 59.322727 17.486635 2,825 245 254 1536
2018-12-13 17:29:52 GMT 59.324497 17.493929 2,750 245 251 1536
2018-12-13 17:29:45 GMT 59.327381 17.506050 2,550 245 250 1024
2018-12-13 17:29:42 GMT 59.329384 17.514292 2,500 245 251 896
2018-12-13 17:29:33 GMT 59.333759 17.532475 2,475 245 257 0
2018-12-13 17:29:22 GMT 59.339439 17.555964 2,475 245 259 -64
2018-12-13 17:29:15 GMT 59.343201 17.571625 2,475 245 262 0
2018-12-13 17:29:04 GMT 59.348511 17.593872 2,475 246 263 0
2018-12-13 17:29:01 GMT 59.354755 17.620934 2,475 246 262 64
2018-12-13 17:28:52 GMT 59.357780 17.634571 2,475 248 259 0
2018-12-13 17:28:43 GMT 59.358898 17.639971 2,475 249 258 0
2018-12-13 17:28:31 GMT 59.364075 17.667114 2,475 252 255 64
2018-12-13 17:28:24 GMT 59.366951 17.682590 2,475 246 254 64
2018-12-13 17:28:21 GMT 59.367928 17.686756 2,475 243 253 64
2018-12-13 17:28:11 GMT 59.375107 17.706482 2,450 222 250 -128
2018-12-13 17:28:03 GMT 59.382267 17.716307 2,475 209 246 64
2018-12-13 17:27:51 GMT 59.394974 17.731476 2,475 222 249 0
2018-12-13 17:27:43 GMT 59.401245 17.744751 2,475 239 251 64
2018-12-13 17:27:40 GMT 59.402435 17.748688 2,475 243 250 64
2018-12-13 17:27:29 GMT 59.406380 17.772848 2,450 270 252 0
2018-12-13 17:27:21 GMT 59.406010 17.789707 2,450 292 248 -128
2018-12-13 17:27:18 GMT 59.405090 17.796478 2,450 292 248 -128
2018-12-13 17:27:09 GMT 59.399643 17.816895 2,475 305 243 -64
2018-12-13 17:27:00 GMT 59.392834 17.836493 2,475 304 237 256
2018-12-13 17:26:48 GMT 59.387238 17.852875 2,400 304 221 704
2018-12-13 17:26:38 GMT 59.381882 17.868073 2,300 306 211 1088
2018-12-13 17:26:35 GMT 59.375191 17.884512 2,150 303 158 3264

Making use of Plane Finder data

You are free to use the raw flight data, aircraft information and images provided in this report for your own purposes provided the data is correctly attributed to Plane Finder. We ask that you please credit Plane Finder and link to planefinder.net in close proximity to the content.

Optionally one of the following logos (no smaller then 150x24px) can be used and must link to planefinder.net

Embedding the Plane Finder map

You are welcome to embed the Plane Finder playback map on your website to offer visitors a more interactive experience. We suggest using the following HTML code:

<iframe src="//planefinder.net/data/report/EDC309R-G-PERG-7700-squawk-2018-12-13/map" width="800" height="600" seamless="seamless"></iframe>

Where our data comes from

Plane Finder has a global network of data feeds and antenna radars that receive data broadcast directly from aircraft. The primary technologies used are ADS-B and MLAT. We also show feeds from the FAA and a FLARM glider feed.

Click here to find out more about the Plane Finder network.

How we collect our data